SKRH

Details ICAO SKRH (RCH)
Name ALMIRANTE PADILLA
Region Colombia
Timezone America/Bogota (UTC-5.0)
Plans Departing 6
Arriving 17
Stats Elevation 43 ft / 13 m (AMSL)
Location 11.526222° -72.925958°
Runways 1
Magnetic Variation 8.955° W
Sunrise 2017-12-17 11:05:48 UTC / 2017-12-17 06:05:48 Local
Sunset 2017-12-17 22:32:47 UTC / 2017-12-17 17:32:47 Local
Advertisement - Login to hide

Runways

ID Width Length Bearing (true) Bearing (mag) Surface Threshold Offset Overrun Length
09 98 ft / 30 m 5,409 ft / 1,649 m 88.32° 97.27° Asphalt 0 ft / 0 m 0 ft / 0 m
27 98 ft / 30 m 5,409 ft / 1,649 m 268.33° 277.28° Asphalt 0 ft / 0 m 0 ft / 0 m

Map

Weather


0- 5 10 15 20 25 30 35+ Temperature / ° C

Clouds and Precipitation
Forecast for 2017-12-18 00:00 UTC. Updated 14 minutes ago

Ground ~20,000 ft ~40,000 ft Winds

METAR

SKRH 172100Z 11013G27KT 9999 FEW015 32/20 A2982

TAF

Not found

Frequencies

Tower 118.40 MHz TWR
Warning: Do not use this data for real-world aviation or navigation. No guarantee of current accuracy is given.